createdAt,value
2023-05-08T00:01:13.891Z,15.15
2023-05-08T00:03:41.848Z,15.10
2023-05-08T00:06:08.771Z,15.06
2023-05-08T00:08:35.277Z,15.05
2023-05-08T00:11:01.967Z,15.06
2023-05-08T00:13:29.002Z,15.09
2023-05-08T00:15:55.632Z,14.94
2023-05-08T00:18:22.164Z,15.05
2023-05-08T00:20:50.109Z,15.04
2023-05-08T00:23:16.643Z,15.01
2023-05-08T00:25:43.302Z,15.01
2023-05-08T00:28:09.786Z,14.88
2023-05-08T00:30:36.870Z,15.00
2023-05-08T00:33:03.544Z,15.00
2023-05-08T00:35:30.156Z,14.98
2023-05-08T00:37:58.573Z,14.97
2023-05-08T00:40:26.632Z,14.97
2023-05-08T00:42:54.281Z,14.95
2023-05-08T00:45:20.790Z,14.95
2023-05-08T00:47:47.653Z,14.94
2023-05-08T00:50:14.614Z,14.93
2023-05-08T00:52:41.458Z,14.92
2023-05-08T00:55:09.822Z,14.95
2023-05-08T00:57:36.813Z,14.89
2023-05-08T01:00:05.197Z,14.87
2023-05-08T01:02:32.338Z,14.86
2023-05-08T01:04:58.962Z,14.75
2023-05-08T01:07:25.674Z,14.86
2023-05-08T01:09:52.291Z,14.84
2023-05-08T01:12:26.293Z,14.87
2023-05-08T01:15:05.334Z,14.82
2023-05-08T01:17:42.951Z,14.83
2023-05-08T01:20:28.010Z,14.82
2023-05-08T01:23:23.999Z,14.82
2023-05-08T01:26:11.626Z,14.78
2023-05-08T01:29:00.289Z,14.76
2023-05-08T01:31:39.401Z,14.73
2023-05-08T01:34:11.889Z,14.72
2023-05-08T01:36:48.313Z,14.69
2023-05-08T01:39:18.850Z,14.69
2023-05-08T01:41:53.346Z,14.67
2023-05-08T01:44:24.588Z,14.64
2023-05-08T01:46:52.067Z,14.63
2023-05-08T01:49:25.949Z,14.62
2023-05-08T01:51:57.827Z,14.59
2023-05-08T01:54:28.699Z,14.58
2023-05-08T01:56:57.734Z,14.57
2023-05-08T01:59:26.236Z,14.55
2023-05-08T02:01:57.246Z,14.53
2023-05-08T02:04:26.058Z,14.56
2023-05-08T02:06:53.499Z,14.57
2023-05-08T02:09:22.128Z,14.54
2023-05-08T02:11:51.000Z,14.50
2023-05-08T02:14:19.805Z,14.53
2023-05-08T02:16:48.717Z,14.51
2023-05-08T02:19:16.865Z,14.51
2023-05-08T02:21:46.978Z,14.48
2023-05-08T02:24:15.292Z,14.46
2023-05-08T02:26:43.937Z,14.46
2023-05-08T02:29:10.894Z,14.48
2023-05-08T02:31:38.721Z,14.49
2023-05-08T02:34:08.280Z,14.50
2023-05-08T02:36:37.366Z,14.51
2023-05-08T02:39:07.582Z,14.49
2023-05-08T02:41:35.812Z,14.45
2023-05-08T02:44:02.417Z,14.48
2023-05-08T02:46:36.350Z,14.41
2023-05-08T02:49:08.607Z,14.44
2023-05-08T02:51:45.492Z,14.47
2023-05-08T02:54:21.443Z,14.47
2023-05-08T02:56:57.988Z,14.45
2023-05-08T02:59:30.029Z,14.44
2023-05-08T03:02:03.858Z,14.45
2023-05-08T03:04:34.624Z,14.47
2023-05-08T03:07:03.125Z,14.46
2023-05-08T03:09:38.680Z,14.42
2023-05-08T03:12:12.575Z,14.38
2023-05-08T03:14:42.947Z,14.36
2023-05-08T03:17:14.646Z,14.35
2023-05-08T03:19:45.107Z,14.37
2023-05-08T03:22:15.080Z,14.33
2023-05-08T03:24:44.002Z,14.31
2023-05-08T03:27:11.280Z,14.31
2023-05-08T03:29:39.312Z,14.33
2023-05-08T03:32:07.287Z,14.31
2023-05-08T03:34:35.717Z,14.26
2023-05-08T03:37:02.699Z,14.33
2023-05-08T03:39:29.552Z,14.31
2023-05-08T03:41:57.896Z,14.31
2023-05-08T03:44:25.909Z,14.30
2023-05-08T03:46:55.524Z,14.31
2023-05-08T03:49:25.153Z,14.31
2023-05-08T03:51:53.195Z,14.30
2023-05-08T03:54:19.914Z,14.28
2023-05-08T03:56:46.819Z,14.27
2023-05-08T03:59:21.739Z,14.27
2023-05-08T04:01:52.894Z,14.30
2023-05-08T04:04:27.757Z,14.28
2023-05-08T04:07:11.477Z,14.27
2023-05-08T04:09:55.131Z,14.25
2023-05-08T04:12:33.147Z,14.17
2023-05-08T04:15:05.881Z,14.08
2023-05-08T04:17:39.231Z,14.04
2023-05-08T04:20:10.857Z,13.99
2023-05-08T04:22:39.121Z,13.99
2023-05-08T04:25:09.057Z,13.93
2023-05-08T04:27:36.052Z,14.02
2023-05-08T04:30:05.168Z,14.01
2023-05-08T04:32:37.161Z,14.01
2023-05-08T04:35:06.547Z,14.03
2023-05-08T04:37:33.074Z,13.92
2023-05-08T04:40:02.897Z,13.88
2023-05-08T04:42:31.341Z,13.86
2023-05-08T04:44:59.629Z,13.87
2023-05-08T04:47:27.762Z,13.88
2023-05-08T04:49:54.493Z,13.86
2023-05-08T04:52:21.015Z,13.87
2023-05-08T04:54:47.596Z,13.87
2023-05-08T04:57:14.166Z,13.90
2023-05-08T04:59:40.893Z,13.93
2023-05-08T05:02:08.331Z,13.91
2023-05-08T05:04:37.229Z,13.92
2023-05-08T05:07:05.527Z,13.92
2023-05-08T05:09:32.729Z,13.83
2023-05-08T05:11:59.393Z,13.78
2023-05-08T05:14:26.036Z,13.75
2023-05-08T05:16:52.591Z,13.71
2023-05-08T05:19:19.170Z,13.77
2023-05-08T05:21:47.114Z,13.75
2023-05-08T05:24:13.838Z,13.73
2023-05-08T05:26:40.795Z,13.71
2023-05-08T05:29:07.951Z,13.62
2023-05-08T05:31:34.601Z,13.56
2023-05-08T05:34:01.260Z,13.65
2023-05-08T05:36:27.781Z,13.56
2023-05-08T05:38:55.773Z,13.53
2023-05-08T05:41:22.514Z,13.51
2023-05-08T05:43:49.112Z,13.55
2023-05-08T05:46:15.732Z,13.59
2023-05-08T05:48:42.448Z,13.59
2023-05-08T05:51:09.868Z,13.58
2023-05-08T05:53:36.695Z,13.69
2023-05-08T05:56:05.243Z,13.73
2023-05-08T05:58:32.610Z,13.78
2023-05-08T06:00:59.174Z,13.85
2023-05-08T06:03:25.959Z,13.88
2023-05-08T06:05:52.791Z,13.93
2023-05-08T06:08:19.577Z,13.99
2023-05-08T06:10:46.158Z,14.07
2023-05-08T06:13:14.227Z,14.14
2023-05-08T06:15:40.860Z,14.12
2023-05-08T06:18:07.455Z,14.30
2023-05-08T06:20:34.388Z,14.38
2023-05-08T06:23:01.066Z,14.49
2023-05-08T06:25:27.783Z,14.54
2023-05-08T06:27:54.318Z,14.62
2023-05-08T06:30:22.647Z,14.69
2023-05-08T06:32:49.286Z,14.75
2023-05-08T06:35:15.995Z,14.75
2023-05-08T06:37:42.576Z,14.81
2023-05-08T06:40:12.535Z,14.89
2023-05-08T06:42:39.779Z,14.98
2023-05-08T06:45:07.738Z,15.06
2023-05-08T06:47:35.707Z,15.17
2023-05-08T06:50:02.332Z,15.25
2023-05-08T06:52:29.043Z,15.25
2023-05-08T06:54:55.533Z,15.29
2023-05-08T06:57:22.097Z,15.28
2023-05-08T06:59:48.608Z,15.25
2023-05-08T07:02:15.252Z,15.23
2023-05-08T07:04:43.678Z,15.25
2023-05-08T07:07:10.382Z,15.25
2023-05-08T07:09:36.950Z,15.28
2023-05-08T07:12:03.879Z,15.30
2023-05-08T07:14:30.369Z,15.33
2023-05-08T07:16:56.955Z,15.38
2023-05-08T07:19:23.489Z,15.43
2023-05-08T07:21:51.476Z,15.45
2023-05-08T07:24:17.993Z,15.49
2023-05-08T07:26:44.532Z,15.48
2023-05-08T07:29:11.023Z,15.52
2023-05-08T07:31:39.384Z,15.49
2023-05-08T07:34:05.912Z,15.50
2023-05-08T07:36:32.459Z,15.53
2023-05-08T07:39:00.469Z,15.58
2023-05-08T07:41:27.106Z,15.57
2023-05-08T07:43:53.696Z,15.58
2023-05-08T07:46:20.703Z,15.60
2023-05-08T07:48:47.338Z,15.63
2023-05-08T07:51:14.578Z,15.65
2023-05-08T07:53:41.191Z,15.56
2023-05-08T07:56:09.204Z,15.66
2023-05-08T07:58:35.709Z,15.70
2023-05-08T08:01:02.450Z,15.77
2023-05-08T08:03:29.161Z,15.87
2023-05-08T08:05:55.859Z,15.89
2023-05-08T08:08:22.440Z,15.93
2023-05-08T08:10:49.791Z,15.97
2023-05-08T08:13:17.759Z,15.94
2023-05-08T08:15:44.350Z,16.02
2023-05-08T08:18:10.949Z,16.01
2023-05-08T08:20:37.705Z,16.07
2023-05-08T08:23:04.379Z,16.07
2023-05-08T08:25:30.981Z,16.07
2023-05-08T08:27:57.488Z,16.10
2023-05-08T08:30:25.459Z,16.18
2023-05-08T08:32:52.051Z,16.22
2023-05-08T08:35:18.905Z,16.25
2023-05-08T08:37:45.531Z,16.27
2023-05-08T08:40:12.488Z,16.24
2023-05-08T08:42:39.144Z,16.23
2023-05-08T08:45:07.092Z,16.25
2023-05-08T08:47:36.722Z,16.27
2023-05-08T08:50:04.272Z,16.24
2023-05-08T08:52:36.939Z,16.27
2023-05-08T08:55:07.405Z,16.32
2023-05-08T08:57:36.980Z,16.29
2023-05-08T09:00:04.927Z,16.23
2023-05-08T09:02:32.028Z,16.22
2023-05-08T09:05:00.695Z,16.24
2023-05-08T09:07:27.853Z,16.30
2023-05-08T09:09:54.795Z,16.29
2023-05-08T09:12:21.342Z,16.29
2023-05-08T09:14:47.938Z,16.28
2023-05-08T09:17:14.446Z,16.29
2023-05-08T09:19:42.222Z,16.30
2023-05-08T09:22:11.578Z,16.30
2023-05-08T09:24:57.872Z,16.32
2023-05-08T09:27:25.948Z,16.30
2023-05-08T09:29:59.968Z,16.30
2023-05-08T09:32:27.206Z,16.27
2023-05-08T09:34:53.743Z,16.25
2023-05-08T09:37:21.900Z,16.21
2023-05-08T09:39:48.420Z,16.19
2023-05-08T09:42:15.068Z,16.17
2023-05-08T09:44:45.443Z,16.18
2023-05-08T09:47:14.084Z,16.12
2023-05-08T09:49:55.769Z,16.10
2023-05-08T09:52:23.724Z,16.08
2023-05-08T09:54:56.684Z,16.08
2023-05-08T09:57:23.311Z,16.08
2023-05-08T09:59:49.848Z,16.07
2023-05-08T10:02:16.726Z,16.03
2023-05-08T10:04:43.413Z,16.03
2023-05-08T10:07:09.997Z,16.01
2023-05-08T10:09:49.682Z,16.01
2023-05-08T10:12:17.130Z,15.99
2023-05-08T10:14:45.579Z,15.98
2023-05-08T10:17:15.329Z,15.89
2023-05-08T10:19:45.837Z,15.91
2023-05-08T10:22:15.523Z,15.95
2023-05-08T10:24:45.792Z,15.95
2023-05-08T10:27:19.232Z,15.92
2023-05-08T10:29:52.509Z,15.94
2023-05-08T10:32:20.177Z,15.89
2023-05-08T10:34:52.793Z,15.87
2023-05-08T10:37:20.102Z,15.88
2023-05-08T10:39:48.323Z,15.86
2023-05-08T10:42:15.001Z,15.92
2023-05-08T10:44:41.515Z,15.93
2023-05-08T10:47:14.653Z,15.95
2023-05-08T10:49:49.352Z,15.99
2023-05-08T10:52:20.874Z,16.02
2023-05-08T10:55:09.266Z,16.06
2023-05-08T10:57:35.898Z,16.11
2023-05-08T11:00:02.454Z,16.21
2023-05-08T11:02:30.485Z,16.29
2023-05-08T11:05:14.312Z,16.45
2023-05-08T11:07:53.672Z,16.54
2023-05-08T11:10:22.476Z,16.66
2023-05-08T11:12:49.981Z,16.70
2023-05-08T11:15:16.609Z,16.89
2023-05-08T11:17:53.326Z,16.97
2023-05-08T11:20:23.501Z,17.10
2023-05-08T11:22:50.576Z,17.21
2023-05-08T11:25:17.079Z,17.33
2023-05-08T11:28:18.810Z,17.54
2023-05-08T11:30:47.101Z,17.71
2023-05-08T11:33:17.780Z,17.90
2023-05-08T11:35:53.528Z,17.99
2023-05-08T11:38:25.737Z,18.00
2023-05-08T11:41:03.308Z,18.03
2023-05-08T11:44:09.060Z,18.06
2023-05-08T11:46:40.092Z,18.19
2023-05-08T11:49:10.955Z,18.22
2023-05-08T11:51:37.976Z,18.30
2023-05-08T11:54:05.158Z,18.40
2023-05-08T11:56:31.701Z,18.49
2023-05-08T11:59:04.787Z,18.53
2023-05-08T12:01:32.419Z,18.55
2023-05-08T12:04:04.824Z,18.71
2023-05-08T12:06:33.183Z,18.88
2023-05-08T12:09:00.185Z,19.03
2023-05-08T12:11:27.071Z,19.13
2023-05-08T12:13:54.787Z,19.23
2023-05-08T12:16:23.041Z,19.28
2023-05-08T12:18:50.717Z,19.41
2023-05-08T12:21:19.212Z,19.53
2023-05-08T12:23:45.775Z,19.60
2023-05-08T12:26:12.447Z,19.63
2023-05-08T12:28:39.321Z,19.69
2023-05-08T12:31:06.303Z,19.77
2023-05-08T12:33:33.878Z,19.90
2023-05-08T12:36:01.038Z,20.00
2023-05-08T12:38:29.292Z,19.95
2023-05-08T12:40:56.185Z,20.07
2023-05-08T12:43:31.669Z,20.17
2023-05-08T12:45:58.594Z,20.15
2023-05-08T12:48:25.171Z,20.18
2023-05-08T12:50:51.852Z,20.22
2023-05-08T12:53:19.839Z,20.29
2023-05-08T12:55:53.032Z,20.39
2023-05-08T12:58:20.405Z,20.34
2023-05-08T13:00:48.390Z,20.30
2023-05-08T13:03:23.260Z,20.41
2023-05-08T13:05:49.987Z,20.45
2023-05-08T13:08:16.814Z,20.70
2023-05-08T13:10:48.163Z,20.86
2023-05-08T13:13:18.185Z,21.10
2023-05-08T13:15:45.264Z,21.18
2023-05-08T13:18:12.339Z,21.19
2023-05-08T13:20:39.213Z,20.95
2023-05-08T13:23:06.030Z,21.47
2023-05-08T13:25:33.765Z,21.71
2023-05-08T13:28:00.285Z,21.80
2023-05-08T13:30:28.202Z,21.78
2023-05-08T13:32:55.068Z,21.83
2023-05-08T13:35:22.292Z,21.81
2023-05-08T13:37:48.889Z,21.73
2023-05-08T13:40:16.298Z,21.67
2023-05-08T13:42:43.400Z,21.61
2023-05-08T13:45:10.739Z,21.61
2023-05-08T13:47:38.954Z,21.81
2023-05-08T13:50:06.975Z,21.98
2023-05-08T13:52:33.491Z,22.09
2023-05-08T13:55:00.067Z,22.22
2023-05-08T13:57:26.694Z,22.22
2023-05-08T13:59:53.232Z,22.19
2023-05-08T14:02:20.056Z,22.15
2023-05-08T14:04:47.981Z,22.07
2023-05-08T14:07:14.474Z,22.06
2023-05-08T14:09:41.121Z,22.30
2023-05-08T14:12:07.706Z,22.48
2023-05-08T14:14:34.646Z,22.55
2023-05-08T14:17:01.448Z,22.59
2023-05-08T14:19:27.963Z,22.48
2023-05-08T14:21:55.819Z,22.72
2023-05-08T14:24:22.470Z,23.10
2023-05-08T14:26:49.044Z,23.27
2023-05-08T14:29:15.767Z,23.50
2023-05-08T14:31:42.690Z,23.78
2023-05-08T14:34:09.261Z,23.74
2023-05-08T14:36:35.795Z,23.65
2023-05-08T14:39:04.188Z,23.53
2023-05-08T14:41:31.454Z,23.49
2023-05-08T14:43:58.341Z,23.51
2023-05-08T14:46:24.999Z,23.44
2023-05-08T14:48:51.896Z,23.26
2023-05-08T14:51:18.443Z,23.11
2023-05-08T14:53:45.159Z,23.08
2023-05-08T14:56:13.646Z,23.05
2023-05-08T14:58:40.514Z,22.96
2023-05-08T15:01:07.207Z,22.97
2023-05-08T15:03:33.952Z,22.90
2023-05-08T15:06:00.857Z,22.75
2023-05-08T15:08:27.519Z,22.79
2023-05-08T15:10:54.036Z,22.84
2023-05-08T15:13:21.952Z,22.80
2023-05-08T15:15:48.910Z,22.87
2023-05-08T15:18:15.454Z,22.84
2023-05-08T15:20:42.001Z,22.94
2023-05-08T15:23:08.535Z,23.04
2023-05-08T15:25:35.068Z,23.02
2023-05-08T15:28:01.644Z,23.01
2023-05-08T15:30:29.516Z,23.07
2023-05-08T15:32:56.129Z,22.88
2023-05-08T15:35:22.969Z,23.03
2023-05-08T15:37:49.542Z,22.83
2023-05-08T15:40:16.247Z,22.71
2023-05-08T15:42:42.785Z,22.50
2023-05-08T15:45:10.038Z,22.58
2023-05-08T15:47:38.090Z,22.48
2023-05-08T15:50:05.447Z,22.63
2023-05-08T15:52:31.989Z,22.57
2023-05-08T15:54:58.552Z,22.70
2023-05-08T15:57:25.071Z,22.82
2023-05-08T15:59:52.135Z,22.78
2023-05-08T16:02:18.694Z,23.15
2023-05-08T16:04:46.930Z,23.29
2023-05-08T16:07:13.632Z,23.55
2023-05-08T16:09:40.130Z,23.73
2023-05-08T16:12:06.978Z,24.09
2023-05-08T16:14:33.556Z,24.28
2023-05-08T16:17:00.143Z,24.46
2023-05-08T16:19:26.942Z,24.50
2023-05-08T16:21:54.902Z,24.52
2023-05-08T16:24:21.515Z,24.54
2023-05-08T16:26:48.167Z,23.91
2023-05-08T16:29:14.954Z,24.01
2023-05-08T16:31:41.509Z,23.87
2023-05-08T16:34:08.047Z,23.69
2023-05-08T16:36:34.726Z,23.72
2023-05-08T16:39:02.617Z,23.55
2023-05-08T16:41:29.193Z,23.67
2023-05-08T16:43:55.723Z,23.76
2023-05-08T16:46:29.930Z,23.57
2023-05-08T16:48:57.258Z,23.59
2023-05-08T16:51:23.778Z,23.47
2023-05-08T16:53:50.358Z,23.39
2023-05-08T16:56:18.241Z,23.32
2023-05-08T16:58:44.854Z,23.22
2023-05-08T17:01:11.448Z,23.07
2023-05-08T17:03:38.194Z,22.89
2023-05-08T17:06:06.443Z,22.86
2023-05-08T17:08:33.156Z,22.83
2023-05-08T17:10:59.708Z,22.86
2023-05-08T17:13:27.829Z,22.97
2023-05-08T17:15:54.470Z,22.89
2023-05-08T17:18:21.160Z,22.68
2023-05-08T17:20:47.803Z,22.65
2023-05-08T17:23:14.456Z,22.57
2023-05-08T17:25:41.041Z,22.37
2023-05-08T17:28:07.740Z,22.24
2023-05-08T17:30:35.608Z,21.89
2023-05-08T17:33:02.222Z,22.10
2023-05-08T17:35:28.893Z,22.01
2023-05-08T17:37:55.526Z,21.94
2023-05-08T17:40:22.212Z,21.73
2023-05-08T17:42:48.854Z,21.55
2023-05-08T17:45:15.450Z,21.38
2023-05-08T17:47:43.454Z,21.27
2023-05-08T17:50:10.902Z,21.05
2023-05-08T17:52:37.680Z,21.02
2023-05-08T17:55:04.713Z,20.77
2023-05-08T17:57:31.345Z,20.59
2023-05-08T17:59:57.917Z,20.31
2023-05-08T18:02:24.796Z,20.14
2023-05-08T18:04:52.966Z,20.01
2023-05-08T18:07:19.641Z,19.80
2023-05-08T18:09:46.538Z,19.67
2023-05-08T18:12:13.214Z,19.63
2023-05-08T18:14:39.815Z,19.55
2023-05-08T18:17:06.592Z,19.47
2023-05-08T18:19:33.167Z,19.34
2023-05-08T18:22:01.287Z,19.18
2023-05-08T18:24:29.325Z,19.05
2023-05-08T18:26:55.939Z,19.08
2023-05-08T18:29:22.473Z,18.99
2023-05-08T18:31:49.191Z,18.93
2023-05-08T18:34:15.785Z,18.84
2023-05-08T18:36:42.457Z,18.78
2023-05-08T18:39:10.349Z,18.71
2023-05-08T18:41:36.909Z,18.64
2023-05-08T18:44:03.422Z,18.52
2023-05-08T18:46:30.635Z,18.42
2023-05-08T18:48:57.204Z,18.35
2023-05-08T18:51:23.770Z,18.24
2023-05-08T18:53:50.292Z,18.07
2023-05-08T18:56:18.233Z,17.93
2023-05-08T18:58:44.762Z,17.87
2023-05-08T19:01:11.383Z,17.75
2023-05-08T19:03:38.044Z,17.63
2023-05-08T19:06:05.331Z,17.48
2023-05-08T19:08:31.846Z,17.37
2023-05-08T19:10:58.474Z,17.28
2023-05-08T19:13:26.639Z,17.18
2023-05-08T19:15:53.401Z,17.11
2023-05-08T19:18:19.983Z,17.05
2023-05-08T19:20:46.545Z,16.99
2023-05-08T19:23:13.066Z,16.86
2023-05-08T19:25:39.698Z,16.88
2023-05-08T19:28:06.203Z,16.80
2023-05-08T19:30:34.165Z,16.75
2023-05-08T19:33:00.679Z,16.66
2023-05-08T19:35:27.332Z,16.58
2023-05-08T19:37:53.987Z,16.54
2023-05-08T19:40:20.645Z,16.48
2023-05-08T19:42:47.157Z,16.35
2023-05-08T19:45:14.191Z,16.31
2023-05-08T19:47:42.257Z,16.16
2023-05-08T19:50:09.120Z,16.21
2023-05-08T19:52:35.663Z,16.16
2023-05-08T19:55:02.270Z,16.10
2023-05-08T19:57:29.040Z,16.08
2023-05-08T19:59:55.588Z,16.00
2023-05-08T20:02:22.193Z,15.97
2023-05-08T20:05:14.360Z,15.91
2023-05-08T20:07:36.906Z,15.84
2023-05-08T20:10:03.798Z,15.81
2023-05-08T20:12:30.466Z,15.76
2023-05-08T20:14:57.029Z,15.73
2023-05-08T20:17:23.820Z,15.62
2023-05-08T20:19:51.829Z,15.54
2023-05-08T20:22:18.620Z,15.47
2023-05-08T20:24:45.135Z,15.43
2023-05-08T20:27:11.783Z,15.35
2023-05-08T20:29:38.413Z,15.32
2023-05-08T20:32:05.266Z,15.29
2023-05-08T20:34:31.816Z,15.19
2023-05-08T20:36:59.924Z,15.21
2023-05-08T20:39:26.992Z,15.20
2023-05-08T20:41:53.709Z,15.22
2023-05-08T20:44:20.360Z,15.17
2023-05-08T20:46:46.909Z,15.19
2023-05-08T20:49:13.464Z,15.09
2023-05-08T20:51:40.071Z,15.08
2023-05-08T20:54:07.964Z,15.08
2023-05-08T20:56:34.540Z,15.04
2023-05-08T20:59:01.231Z,15.00
2023-05-08T21:01:28.022Z,15.04
2023-05-08T21:03:54.571Z,15.07
2023-05-08T21:06:21.218Z,14.97
2023-05-08T21:08:47.719Z,14.90
2023-05-08T21:11:15.716Z,14.84
2023-05-08T21:13:42.424Z,14.78
2023-05-08T21:16:09.098Z,14.72
2023-05-08T21:18:35.765Z,14.71
2023-05-08T21:21:02.495Z,14.69
2023-05-08T21:23:29.666Z,14.65
2023-05-08T21:25:56.259Z,14.61
2023-05-08T21:28:24.156Z,14.56
2023-05-08T21:30:50.725Z,14.48
2023-05-08T21:33:18.051Z,14.40
2023-05-08T21:35:44.652Z,14.33
2023-05-08T21:38:11.204Z,14.28
2023-05-08T21:40:37.940Z,14.25
2023-05-08T21:43:04.478Z,14.22
2023-05-08T21:45:32.919Z,14.16
2023-05-08T21:48:00.392Z,14.16
2023-05-08T21:50:27.295Z,14.09
2023-05-08T21:52:54.210Z,14.13
2023-05-08T21:55:21.420Z,13.97
2023-05-08T21:57:48.279Z,14.03
2023-05-08T22:00:15.810Z,14.03
2023-05-08T22:02:49.814Z,14.00
2023-05-08T22:05:16.764Z,13.94
2023-05-08T22:07:43.384Z,13.98
2023-05-08T22:10:10.836Z,13.89
2023-05-08T22:12:37.357Z,13.96
2023-05-08T22:15:09.521Z,13.94
2023-05-08T22:17:41.708Z,13.90
2023-05-08T22:20:11.909Z,13.88
2023-05-08T22:22:38.509Z,13.87
2023-05-08T22:25:05.890Z,13.84
2023-05-08T22:27:32.538Z,13.83
2023-05-08T22:29:59.043Z,13.82
2023-05-08T22:32:25.704Z,13.85
2023-05-08T22:34:52.206Z,13.87
2023-05-08T22:37:20.213Z,13.83
2023-05-08T22:39:46.741Z,13.78
2023-05-08T22:42:13.584Z,13.73
2023-05-08T22:44:40.584Z,13.70
2023-05-08T22:47:07.353Z,13.66
2023-05-08T22:49:33.945Z,13.71
2023-05-08T22:52:00.637Z,13.67
2023-05-08T22:54:28.576Z,13.62
2023-05-08T22:56:55.304Z,13.51
2023-05-08T22:59:21.852Z,13.49
2023-05-08T23:01:48.492Z,13.47
2023-05-08T23:04:15.037Z,13.42
2023-05-08T23:06:41.645Z,13.34
2023-05-08T23:09:08.264Z,13.35
2023-05-08T23:11:36.216Z,13.32
2023-05-08T23:14:02.809Z,13.41
2023-05-08T23:16:29.430Z,13.29
2023-05-08T23:18:55.980Z,13.33
2023-05-08T23:21:22.697Z,13.28
2023-05-08T23:23:49.248Z,13.24
2023-05-08T23:26:15.783Z,13.23
2023-05-08T23:28:43.696Z,13.14
2023-05-08T23:31:10.433Z,13.13
2023-05-08T23:33:37.243Z,13.10
2023-05-08T23:36:04.268Z,13.06
2023-05-08T23:38:30.803Z,13.05
2023-05-08T23:40:57.419Z,13.05
2023-05-08T23:43:24.013Z,13.06
2023-05-08T23:45:52.134Z,13.07
2023-05-08T23:48:18.639Z,13.11
2023-05-08T23:50:45.275Z,13.09
2023-05-08T23:53:11.918Z,13.10
2023-05-08T23:55:38.805Z,13.04
2023-05-08T23:58:05.313Z,13.09
